sensor_id;sensor_type;location;lat;lon;timestamp;P1;durP1;ratioP1;P2;durP2;ratioP2
572;SDS011;271;51.114;13.780;2023-02-15T00:02:04;53.58;;;24.52;;
572;SDS011;271;51.114;13.780;2023-02-15T00:04:52;55.72;;;22.60;;
572;SDS011;271;51.114;13.780;2023-02-15T00:07:41;53.40;;;24.20;;
572;SDS011;271;51.114;13.780;2023-02-15T00:10:29;55.33;;;23.80;;
572;SDS011;271;51.114;13.780;2023-02-15T00:13:18;58.92;;;23.95;;
572;SDS011;271;51.114;13.780;2023-02-15T00:16:06;58.35;;;23.70;;
572;SDS011;271;51.114;13.780;2023-02-15T00:19:00;51.97;;;24.58;;
572;SDS011;271;51.114;13.780;2023-02-15T00:21:48;51.60;;;24.05;;
572;SDS011;271;51.114;13.780;2023-02-15T00:24:38;60.90;;;25.17;;
572;SDS011;271;51.114;13.780;2023-02-15T00:27:28;52.22;;;24.27;;
572;SDS011;271;51.114;13.780;2023-02-15T00:30:17;53.65;;;23.60;;
572;SDS011;271;51.114;13.780;2023-02-15T00:33:05;57.20;;;25.52;;
572;SDS011;271;51.114;13.780;2023-02-15T00:35:55;52.67;;;25.45;;
572;SDS011;271;51.114;13.780;2023-02-15T00:38:43;54.85;;;25.55;;
572;SDS011;271;51.114;13.780;2023-02-15T00:41:30;53.65;;;24.20;;
572;SDS011;271;51.114;13.780;2023-02-15T00:44:18;58.17;;;24.27;;
572;SDS011;271;51.114;13.780;2023-02-15T00:47:07;57.05;;;24.88;;
572;SDS011;271;51.114;13.780;2023-02-15T00:49:55;55.38;;;23.20;;
572;SDS011;271;51.114;13.780;2023-02-15T00:52:42;57.45;;;23.70;;
572;SDS011;271;51.114;13.780;2023-02-15T00:55:30;56.78;;;26.00;;
572;SDS011;271;51.114;13.780;2023-02-15T00:58:18;56.38;;;24.38;;
572;SDS011;271;51.114;13.780;2023-02-15T01:01:06;59.83;;;26.42;;
572;SDS011;271;51.114;13.780;2023-02-15T01:03:57;53.20;;;23.58;;
572;SDS011;271;51.114;13.780;2023-02-15T01:06:44;50.78;;;22.83;;
572;SDS011;271;51.114;13.780;2023-02-15T01:09:32;55.53;;;24.10;;
572;SDS011;271;51.114;13.780;2023-02-15T01:12:20;51.15;;;22.95;;
572;SDS011;271;51.114;13.780;2023-02-15T01:15:08;57.47;;;25.50;;
572;SDS011;271;51.114;13.780;2023-02-15T01:17:56;57.72;;;23.90;;
572;SDS011;271;51.114;13.780;2023-02-15T01:20:45;54.70;;;23.65;;
572;SDS011;271;51.114;13.780;2023-02-15T01:23:33;58.55;;;23.13;;
572;SDS011;271;51.114;13.780;2023-02-15T01:26:20;52.88;;;22.20;;
572;SDS011;271;51.114;13.780;2023-02-15T01:29:08;53.58;;;21.42;;
572;SDS011;271;51.114;13.780;2023-02-15T01:31:56;54.85;;;22.45;;
572;SDS011;271;51.114;13.780;2023-02-15T01:34:44;50.28;;;22.50;;
572;SDS011;271;51.114;13.780;2023-02-15T01:37:33;53.72;;;23.27;;
572;SDS011;271;51.114;13.780;2023-02-15T01:40:22;56.67;;;23.35;;
572;SDS011;271;51.114;13.780;2023-02-15T01:43:10;52.30;;;21.50;;
572;SDS011;271;51.114;13.780;2023-02-15T01:45:59;50.95;;;21.83;;
572;SDS011;271;51.114;13.780;2023-02-15T01:48:47;49.03;;;21.92;;
572;SDS011;271;51.114;13.780;2023-02-15T01:51:37;52.67;;;22.38;;
572;SDS011;271;51.114;13.780;2023-02-15T01:54:31;53.38;;;21.70;;
572;SDS011;271;51.114;13.780;2023-02-15T01:57:22;50.25;;;21.42;;
572;SDS011;271;51.114;13.780;2023-02-15T02:00:14;54.58;;;23.80;;
572;SDS011;271;51.114;13.780;2023-02-15T02:03:15;49.42;;;22.02;;
572;SDS011;271;51.114;13.780;2023-02-15T02:06:03;50.08;;;21.38;;
572;SDS011;271;51.114;13.780;2023-02-15T02:08:51;58.17;;;24.83;;
572;SDS011;271;51.114;13.780;2023-02-15T02:11:42;57.53;;;23.88;;
572;SDS011;271;51.114;13.780;2023-02-15T02:14:33;52.50;;;23.35;;
572;SDS011;271;51.114;13.780;2023-02-15T02:17:22;51.92;;;22.50;;
572;SDS011;271;51.114;13.780;2023-02-15T02:20:29;48.05;;;21.27;;
572;SDS011;271;51.114;13.780;2023-02-15T02:23:49;46.45;;;21.95;;
572;SDS011;271;51.114;13.780;2023-02-15T02:30:21;50.22;;;20.02;;
572;SDS011;271;51.114;13.780;2023-02-15T02:33:33;52.42;;;21.95;;
572;SDS011;271;51.114;13.780;2023-02-15T02:36:30;45.95;;;19.25;;
572;SDS011;271;51.114;13.780;2023-02-15T02:39:30;49.75;;;20.77;;
572;SDS011;271;51.114;13.780;2023-02-15T02:42:27;55.60;;;20.77;;
572;SDS011;271;51.114;13.780;2023-02-15T02:45:24;45.63;;;21.02;;
572;SDS011;271;51.114;13.780;2023-02-15T02:48:15;52.97;;;23.38;;
572;SDS011;271;51.114;13.780;2023-02-15T02:51:07;49.95;;;21.98;;
572;SDS011;271;51.114;13.780;2023-02-15T02:53:56;53.33;;;21.98;;
572;SDS011;271;51.114;13.780;2023-02-15T02:56:51;50.35;;;21.50;;
572;SDS011;271;51.114;13.780;2023-02-15T02:59:42;52.90;;;21.88;;
572;SDS011;271;51.114;13.780;2023-02-15T03:02:32;48.60;;;20.48;;
572;SDS011;271;51.114;13.780;2023-02-15T03:05:24;44.78;;;19.55;;
572;SDS011;271;51.114;13.780;2023-02-15T03:08:17;47.35;;;20.95;;
572;SDS011;271;51.114;13.780;2023-02-15T03:11:08;49.33;;;20.25;;
572;SDS011;271;51.114;13.780;2023-02-15T03:13:58;46.85;;;20.98;;
572;SDS011;271;51.114;13.780;2023-02-15T03:16:46;48.30;;;19.80;;
572;SDS011;271;51.114;13.780;2023-02-15T03:19:37;47.88;;;17.95;;
572;SDS011;271;51.114;13.780;2023-02-15T03:22:28;45.28;;;19.42;;
572;SDS011;271;51.114;13.780;2023-02-15T03:25:21;43.45;;;18.63;;
572;SDS011;271;51.114;13.780;2023-02-15T03:28:13;48.20;;;20.40;;
572;SDS011;271;51.114;13.780;2023-02-15T03:31:05;48.55;;;21.00;;
572;SDS011;271;51.114;13.780;2023-02-15T03:33:56;41.50;;;16.77;;
572;SDS011;271;51.114;13.780;2023-02-15T03:36:47;44.55;;;18.52;;
572;SDS011;271;51.114;13.780;2023-02-15T03:39:42;47.08;;;17.05;;
572;SDS011;271;51.114;13.780;2023-02-15T03:42:36;42.45;;;17.70;;
572;SDS011;271;51.114;13.780;2023-02-15T03:45:27;45.55;;;19.20;;
572;SDS011;271;51.114;13.780;2023-02-15T03:48:17;50.28;;;17.38;;
572;SDS011;271;51.114;13.780;2023-02-15T03:51:07;44.95;;;20.75;;
572;SDS011;271;51.114;13.780;2023-02-15T03:54:16;44.75;;;18.33;;
572;SDS011;271;51.114;13.780;2023-02-15T03:57:20;41.60;;;16.60;;
572;SDS011;271;51.114;13.780;2023-02-15T04:00:29;45.78;;;18.77;;
572;SDS011;271;51.114;13.780;2023-02-15T04:03:40;45.03;;;17.75;;
572;SDS011;271;51.114;13.780;2023-02-15T04:06:32;43.35;;;17.10;;
572;SDS011;271;51.114;13.780;2023-02-15T04:09:19;51.13;;;17.98;;
572;SDS011;271;51.114;13.780;2023-02-15T04:12:24;41.17;;;17.60;;
572;SDS011;271;51.114;13.780;2023-02-15T04:15:12;45.40;;;18.40;;
572;SDS011;271;51.114;13.780;2023-02-15T04:18:15;47.65;;;19.38;;
572;SDS011;271;51.114;13.780;2023-02-15T04:21:03;49.83;;;18.00;;
572;SDS011;271;51.114;13.780;2023-02-15T04:24:08;40.95;;;16.27;;
572;SDS011;271;51.114;13.780;2023-02-15T04:27:14;44.72;;;18.80;;
572;SDS011;271;51.114;13.780;2023-02-15T04:30:02;45.58;;;18.80;;
572;SDS011;271;51.114;13.780;2023-02-15T04:32:50;49.20;;;19.85;;
572;SDS011;271;51.114;13.780;2023-02-15T04:35:39;46.33;;;18.83;;
572;SDS011;271;51.114;13.780;2023-02-15T04:38:27;40.90;;;17.00;;
572;SDS011;271;51.114;13.780;2023-02-15T04:41:14;43.50;;;18.42;;
572;SDS011;271;51.114;13.780;2023-02-15T04:44:02;45.83;;;17.58;;
572;SDS011;271;51.114;13.780;2023-02-15T04:46:50;40.90;;;16.38;;
572;SDS011;271;51.114;13.780;2023-02-15T04:49:38;47.00;;;19.42;;
572;SDS011;271;51.114;13.780;2023-02-15T04:52:27;46.53;;;17.90;;
572;SDS011;271;51.114;13.780;2023-02-15T04:55:14;44.90;;;18.13;;
572;SDS011;271;51.114;13.780;2023-02-15T04:58:02;50.05;;;19.02;;
572;SDS011;271;51.114;13.780;2023-02-15T05:00:50;45.83;;;18.05;;
572;SDS011;271;51.114;13.780;2023-02-15T05:03:37;48.88;;;20.50;;
572;SDS011;271;51.114;13.780;2023-02-15T05:06:25;46.40;;;17.90;;
572;SDS011;271;51.114;13.780;2023-02-15T05:09:14;41.20;;;15.90;;
572;SDS011;271;51.114;13.780;2023-02-15T05:12:02;44.65;;;17.73;;
572;SDS011;271;51.114;13.780;2023-02-15T05:14:50;46.03;;;17.65;;
572;SDS011;271;51.114;13.780;2023-02-15T05:17:38;46.65;;;19.85;;
572;SDS011;271;51.114;13.780;2023-02-15T05:20:26;45.35;;;17.45;;
572;SDS011;271;51.114;13.780;2023-02-15T05:23:14;44.83;;;18.98;;
572;SDS011;271;51.114;13.780;2023-02-15T05:26:03;43.70;;;18.13;;
572;SDS011;271;51.114;13.780;2023-02-15T05:29:08;44.03;;;16.48;;
572;SDS011;271;51.114;13.780;2023-02-15T05:31:56;41.50;;;14.88;;
572;SDS011;271;51.114;13.780;2023-02-15T05:34:43;45.63;;;19.00;;
572;SDS011;271;51.114;13.780;2023-02-15T05:37:32;44.90;;;18.42;;
572;SDS011;271;51.114;13.780;2023-02-15T05:40:19;43.45;;;15.60;;
572;SDS011;271;51.114;13.780;2023-02-15T05:43:09;42.97;;;18.15;;
572;SDS011;271;51.114;13.780;2023-02-15T05:45:57;46.85;;;19.00;;
572;SDS011;271;51.114;13.780;2023-02-15T05:48:44;50.58;;;18.52;;
572;SDS011;271;51.114;13.780;2023-02-15T05:51:32;43.80;;;16.05;;
572;SDS011;271;51.114;13.780;2023-02-15T05:54:20;47.10;;;17.45;;
572;SDS011;271;51.114;13.780;2023-02-15T05:57:08;47.78;;;18.42;;
572;SDS011;271;51.114;13.780;2023-02-15T05:59:57;42.88;;;16.90;;
572;SDS011;271;51.114;13.780;2023-02-15T06:02:44;44.17;;;17.17;;
572;SDS011;271;51.114;13.780;2023-02-15T06:05:32;45.55;;;18.52;;
572;SDS011;271;51.114;13.780;2023-02-15T06:08:20;43.00;;;17.30;;
572;SDS011;271;51.114;13.780;2023-02-15T06:11:07;42.67;;;17.83;;
572;SDS011;271;51.114;13.780;2023-02-15T06:13:56;41.55;;;17.10;;
572;SDS011;271;51.114;13.780;2023-02-15T06:16:46;38.90;;;16.80;;
572;SDS011;271;51.114;13.780;2023-02-15T06:19:33;39.03;;;15.85;;
572;SDS011;271;51.114;13.780;2023-02-15T06:22:21;36.65;;;12.80;;
572;SDS011;271;51.114;13.780;2023-02-15T06:25:09;41.15;;;15.25;;
572;SDS011;271;51.114;13.780;2023-02-15T06:27:57;42.33;;;15.90;;
572;SDS011;271;51.114;13.780;2023-02-15T06:30:44;37.97;;;14.75;;
572;SDS011;271;51.114;13.780;2023-02-15T06:33:34;40.22;;;15.10;;
572;SDS011;271;51.114;13.780;2023-02-15T06:36:21;39.15;;;15.82;;
572;SDS011;271;51.114;13.780;2023-02-15T06:39:09;44.88;;;15.82;;
572;SDS011;271;51.114;13.780;2023-02-15T06:41:57;37.92;;;14.93;;
572;SDS011;271;51.114;13.780;2023-02-15T06:44:45;42.03;;;15.48;;
572;SDS011;271;51.114;13.780;2023-02-15T06:47:33;38.20;;;15.20;;
572;SDS011;271;51.114;13.780;2023-02-15T06:50:22;37.05;;;14.23;;
572;SDS011;271;51.114;13.780;2023-02-15T06:53:10;37.13;;;14.23;;
572;SDS011;271;51.114;13.780;2023-02-15T06:56:00;37.90;;;14.85;;
572;SDS011;271;51.114;13.780;2023-02-15T06:58:52;36.45;;;13.80;;
572;SDS011;271;51.114;13.780;2023-02-15T07:01:39;41.88;;;14.02;;
572;SDS011;271;51.114;13.780;2023-02-15T07:04:27;39.08;;;16.58;;
572;SDS011;271;51.114;13.780;2023-02-15T07:07:17;35.22;;;13.55;;
572;SDS011;271;51.114;13.780;2023-02-15T07:10:05;36.88;;;13.63;;
572;SDS011;271;51.114;13.780;2023-02-15T07:12:54;33.88;;;13.15;;
572;SDS011;271;51.114;13.780;2023-02-15T07:15:42;34.70;;;13.40;;
572;SDS011;271;51.114;13.780;2023-02-15T07:18:30;32.72;;;11.98;;
572;SDS011;271;51.114;13.780;2023-02-15T07:21:18;35.15;;;13.60;;
572;SDS011;271;51.114;13.780;2023-02-15T07:24:07;33.80;;;12.50;;
572;SDS011;271;51.114;13.780;2023-02-15T07:26:55;33.65;;;11.60;;
572;SDS011;271;51.114;13.780;2023-02-15T07:29:43;33.28;;;11.73;;
572;SDS011;271;51.114;13.780;2023-02-15T07:32:32;31.60;;;11.30;;
572;SDS011;271;51.114;13.780;2023-02-15T07:35:20;32.42;;;10.98;;
572;SDS011;271;51.114;13.780;2023-02-15T07:38:08;32.25;;;11.00;;
572;SDS011;271;51.114;13.780;2023-02-15T07:40:58;30.95;;;11.02;;
572;SDS011;271;51.114;13.780;2023-02-15T07:43:46;34.88;;;11.00;;
572;SDS011;271;51.114;13.780;2023-02-15T07:46:34;28.15;;;8.55;;
572;SDS011;271;51.114;13.780;2023-02-15T07:49:22;29.60;;;9.60;;
572;SDS011;271;51.114;13.780;2023-02-15T07:52:09;31.25;;;11.75;;
572;SDS011;271;51.114;13.780;2023-02-15T07:55:00;28.05;;;10.30;;
572;SDS011;271;51.114;13.780;2023-02-15T07:57:49;29.00;;;9.55;;
572;SDS011;271;51.114;13.780;2023-02-15T08:00:39;28.45;;;8.77;;
572;SDS011;271;51.114;13.780;2023-02-15T08:03:41;29.17;;;8.20;;
572;SDS011;271;51.114;13.780;2023-02-15T08:06:30;28.15;;;10.27;;
572;SDS011;271;51.114;13.780;2023-02-15T08:09:19;28.48;;;9.60;;
572;SDS011;271;51.114;13.780;2023-02-15T08:12:07;29.52;;;10.15;;
572;SDS011;271;51.114;13.780;2023-02-15T08:14:56;27.20;;;9.20;;
572;SDS011;271;51.114;13.780;2023-02-15T08:17:44;26.80;;;9.40;;
572;SDS011;271;51.114;13.780;2023-02-15T08:20:31;26.00;;;9.23;;
572;SDS011;271;51.114;13.780;2023-02-15T08:23:19;29.38;;;8.90;;
572;SDS011;271;51.114;13.780;2023-02-15T08:26:07;27.45;;;10.02;;
572;SDS011;271;51.114;13.780;2023-02-15T08:28:55;29.13;;;10.00;;
572;SDS011;271;51.114;13.780;2023-02-15T08:31:44;30.80;;;9.65;;
572;SDS011;271;51.114;13.780;2023-02-15T08:34:33;29.27;;;10.13;;
572;SDS011;271;51.114;13.780;2023-02-15T08:37:22;27.73;;;9.80;;
572;SDS011;271;51.114;13.780;2023-02-15T08:40:11;29.27;;;10.05;;
572;SDS011;271;51.114;13.780;2023-02-15T08:42:59;26.67;;;9.73;;
572;SDS011;271;51.114;13.780;2023-02-15T08:45:47;25.73;;;9.35;;
572;SDS011;271;51.114;13.780;2023-02-15T08:48:36;27.70;;;10.15;;
572;SDS011;271;51.114;13.780;2023-02-15T08:51:25;25.38;;;8.77;;
572;SDS011;271;51.114;13.780;2023-02-15T08:54:15;29.30;;;9.30;;
572;SDS011;271;51.114;13.780;2023-02-15T08:57:04;25.83;;;9.15;;
572;SDS011;271;51.114;13.780;2023-02-15T08:59:52;23.98;;;8.18;;
572;SDS011;271;51.114;13.780;2023-02-15T09:02:40;25.08;;;8.80;;
572;SDS011;271;51.114;13.780;2023-02-15T09:05:30;25.02;;;7.95;;
572;SDS011;271;51.114;13.780;2023-02-15T09:08:17;26.52;;;9.05;;
572;SDS011;271;51.114;13.780;2023-02-15T09:11:09;23.52;;;8.13;;
572;SDS011;271;51.114;13.780;2023-02-15T09:13:59;24.20;;;7.70;;
572;SDS011;271;51.114;13.780;2023-02-15T09:16:48;24.65;;;9.05;;
572;SDS011;271;51.114;13.780;2023-02-15T09:19:37;25.40;;;8.70;;
572;SDS011;271;51.114;13.780;2023-02-15T09:22:26;25.70;;;8.63;;
572;SDS011;271;51.114;13.780;2023-02-15T09:25:14;26.10;;;8.98;;
572;SDS011;271;51.114;13.780;2023-02-15T09:28:01;22.73;;;8.23;;
572;SDS011;271;51.114;13.780;2023-02-15T09:30:49;22.48;;;7.57;;
572;SDS011;271;51.114;13.780;2023-02-15T09:33:39;24.90;;;8.25;;
572;SDS011;271;51.114;13.780;2023-02-15T09:36:28;25.00;;;8.67;;
572;SDS011;271;51.114;13.780;2023-02-15T09:39:20;25.73;;;9.07;;
572;SDS011;271;51.114;13.780;2023-02-15T09:42:34;29.60;;;10.80;;
572;SDS011;271;51.114;13.780;2023-02-15T09:45:42;25.88;;;9.75;;
572;SDS011;271;51.114;13.780;2023-02-15T09:48:47;27.08;;;10.30;;
572;SDS011;271;51.114;13.780;2023-02-15T09:51:52;25.30;;;9.52;;
572;SDS011;271;51.114;13.780;2023-02-15T09:55:03;24.53;;;9.43;;
572;SDS011;271;51.114;13.780;2023-02-15T09:58:07;26.87;;;9.43;;
572;SDS011;271;51.114;13.780;2023-02-15T10:01:03;26.40;;;9.70;;
572;SDS011;271;51.114;13.780;2023-02-15T10:04:04;28.83;;;11.07;;
572;SDS011;271;51.114;13.780;2023-02-15T10:07:18;26.77;;;10.53;;
572;SDS011;271;51.114;13.780;2023-02-15T10:10:21;27.80;;;9.90;;
572;SDS011;271;51.114;13.780;2023-02-15T10:13:18;24.80;;;9.97;;
572;SDS011;271;51.114;13.780;2023-02-15T10:16:18;24.60;;;9.73;;
572;SDS011;271;51.114;13.780;2023-02-15T10:19:12;29.80;;;11.73;;
572;SDS011;271;51.114;13.780;2023-02-15T10:22:11;27.30;;;10.17;;
572;SDS011;271;51.114;13.780;2023-02-15T10:25:13;25.10;;;9.53;;
572;SDS011;271;51.114;13.780;2023-02-15T10:28:16;27.20;;;10.90;;
572;SDS011;271;51.114;13.780;2023-02-15T10:31:07;25.90;;;9.13;;
572;SDS011;271;51.114;13.780;2023-02-15T10:34:06;24.50;;;9.20;;
572;SDS011;271;51.114;13.780;2023-02-15T10:37:18;26.70;;;11.00;;
572;SDS011;271;51.114;13.780;2023-02-15T10:40:25;25.97;;;10.23;;
572;SDS011;271;51.114;13.780;2023-02-15T10:43:37;27.27;;;10.87;;
572;SDS011;271;51.114;13.780;2023-02-15T10:46:40;28.30;;;11.73;;
572;SDS011;271;51.114;13.780;2023-02-15T10:49:55;25.90;;;10.60;;
572;SDS011;271;51.114;13.780;2023-02-15T10:53:05;29.47;;;12.70;;
572;SDS011;271;51.114;13.780;2023-02-15T10:56:08;31.37;;;13.23;;
572;SDS011;271;51.114;13.780;2023-02-15T10:59:22;28.67;;;11.70;;
572;SDS011;271;51.114;13.780;2023-02-15T11:02:25;28.60;;;11.00;;
572;SDS011;271;51.114;13.780;2023-02-15T11:05:26;25.57;;;10.20;;
572;SDS011;271;51.114;13.780;2023-02-15T11:08:23;27.47;;;11.30;;
572;SDS011;271;51.114;13.780;2023-02-15T11:11:15;26.30;;;11.03;;
572;SDS011;271;51.114;13.780;2023-02-15T11:14:10;27.67;;;11.40;;
572;SDS011;271;51.114;13.780;2023-02-15T11:17:02;28.70;;;11.00;;
572;SDS011;271;51.114;13.780;2023-02-15T11:19:56;27.83;;;11.30;;
572;SDS011;271;51.114;13.780;2023-02-15T11:22:52;27.80;;;10.80;;
572;SDS011;271;51.114;13.780;2023-02-15T11:25:41;24.73;;;10.23;;
572;SDS011;271;51.114;13.780;2023-02-15T11:28:33;24.67;;;9.83;;
572;SDS011;271;51.114;13.780;2023-02-15T11:31:26;26.83;;;9.90;;
572;SDS011;271;51.114;13.780;2023-02-15T11:34:29;25.00;;;9.43;;
572;SDS011;271;51.114;13.780;2023-02-15T11:37:23;27.37;;;11.63;;
572;SDS011;271;51.114;13.780;2023-02-15T11:40:21;24.87;;;9.77;;
572;SDS011;271;51.114;13.780;2023-02-15T11:43:14;26.23;;;11.00;;
572;SDS011;271;51.114;13.780;2023-02-15T11:46:08;27.13;;;10.60;;
572;SDS011;271;51.114;13.780;2023-02-15T11:49:01;26.33;;;11.27;;
572;SDS011;271;51.114;13.780;2023-02-15T11:51:50;25.60;;;10.40;;
572;SDS011;271;51.114;13.780;2023-02-15T11:54:49;24.10;;;10.40;;
572;SDS011;271;51.114;13.780;2023-02-15T11:57:39;25.30;;;9.70;;
572;SDS011;271;51.114;13.780;2023-02-15T12:00:35;25.90;;;10.90;;
572;SDS011;271;51.114;13.780;2023-02-15T12:03:29;27.57;;;9.87;;
572;SDS011;271;51.114;13.780;2023-02-15T12:06:32;27.27;;;10.87;;
572;SDS011;271;51.114;13.780;2023-02-15T12:09:24;28.20;;;12.30;;
572;SDS011;271;51.114;13.780;2023-02-15T12:12:25;25.37;;;10.40;;
572;SDS011;271;51.114;13.780;2023-02-15T12:15:14;25.90;;;10.77;;
572;SDS011;271;51.114;13.780;2023-02-15T12:18:18;25.37;;;10.40;;
572;SDS011;271;51.114;13.780;2023-02-15T12:21:15;27.20;;;10.60;;
572;SDS011;271;51.114;13.780;2023-02-15T12:24:16;25.23;;;10.33;;
572;SDS011;271;51.114;13.780;2023-02-15T12:27:13;27.67;;;11.07;;
572;SDS011;271;51.114;13.780;2023-02-15T12:30:04;27.23;;;10.40;;
572;SDS011;271;51.114;13.780;2023-02-15T12:33:05;26.90;;;10.57;;
572;SDS011;271;51.114;13.780;2023-02-15T12:36:03;26.37;;;11.07;;
572;SDS011;271;51.114;13.780;2023-02-15T12:39:15;26.93;;;10.13;;
572;SDS011;271;51.114;13.780;2023-02-15T12:42:14;24.50;;;11.30;;
572;SDS011;271;51.114;13.780;2023-02-15T12:45:19;27.27;;;10.90;;
572;SDS011;271;51.114;13.780;2023-02-15T12:48:13;26.20;;;10.43;;
572;SDS011;271;51.114;13.780;2023-02-15T12:51:06;25.00;;;9.20;;
572;SDS011;271;51.114;13.780;2023-02-15T12:53:55;24.03;;;10.10;;
572;SDS011;271;51.114;13.780;2023-02-15T12:56:48;24.37;;;9.00;;
572;SDS011;271;51.114;13.780;2023-02-15T12:59:35;25.37;;;9.33;;
572;SDS011;271;51.114;13.780;2023-02-15T13:02:28;23.30;;;8.90;;
572;SDS011;271;51.114;13.780;2023-02-15T13:05:23;22.60;;;8.67;;
572;SDS011;271;51.114;13.780;2023-02-15T13:08:17;24.30;;;9.30;;
572;SDS011;271;51.114;13.780;2023-02-15T13:11:08;28.37;;;9.70;;
572;SDS011;271;51.114;13.780;2023-02-15T13:13:59;25.73;;;10.33;;
572;SDS011;271;51.114;13.780;2023-02-15T13:16:50;24.87;;;9.50;;
572;SDS011;271;51.114;13.780;2023-02-15T13:19:40;24.20;;;8.73;;
572;SDS011;271;51.114;13.780;2023-02-15T13:22:32;24.93;;;10.60;;
572;SDS011;271;51.114;13.780;2023-02-15T13:25:28;25.20;;;10.10;;
572;SDS011;271;51.114;13.780;2023-02-15T13:28:22;26.90;;;10.60;;
572;SDS011;271;51.114;13.780;2023-02-15T13:31:19;24.27;;;9.60;;
572;SDS011;271;51.114;13.780;2023-02-15T13:34:09;24.10;;;9.83;;
572;SDS011;271;51.114;13.780;2023-02-15T13:37:05;26.27;;;10.50;;
572;SDS011;271;51.114;13.780;2023-02-15T13:40:00;24.13;;;9.57;;
572;SDS011;271;51.114;13.780;2023-02-15T13:42:54;25.37;;;10.70;;
572;SDS011;271;51.114;13.780;2023-02-15T13:45:47;25.10;;;9.87;;
572;SDS011;271;51.114;13.780;2023-02-15T13:48:51;25.17;;;9.80;;
572;SDS011;271;51.114;13.780;2023-02-15T13:51:51;26.07;;;10.67;;
572;SDS011;271;51.114;13.780;2023-02-15T13:54:54;26.23;;;11.60;;
572;SDS011;271;51.114;13.780;2023-02-15T13:58:06;23.17;;;9.67;;
572;SDS011;271;51.114;13.780;2023-02-15T14:01:13;27.80;;;11.67;;
572;SDS011;271;51.114;13.780;2023-02-15T14:04:20;26.97;;;11.77;;
572;SDS011;271;51.114;13.780;2023-02-15T14:07:33;27.70;;;11.37;;
572;SDS011;271;51.114;13.780;2023-02-15T14:10:41;26.33;;;11.40;;
572;SDS011;271;51.114;13.780;2023-02-15T14:16:45;27.00;;;11.43;;
572;SDS011;271;51.114;13.780;2023-02-15T14:19:48;27.07;;;11.47;;
572;SDS011;271;51.114;13.780;2023-02-15T14:22:40;30.10;;;11.57;;
572;SDS011;271;51.114;13.780;2023-02-15T14:25:33;25.97;;;11.40;;
572;SDS011;271;51.114;13.780;2023-02-15T14:28:30;25.80;;;10.80;;
572;SDS011;271;51.114;13.780;2023-02-15T14:31:25;29.03;;;12.30;;
572;SDS011;271;51.114;13.780;2023-02-15T14:34:19;29.37;;;10.80;;
572;SDS011;271;51.114;13.780;2023-02-15T14:37:12;27.83;;;11.13;;
572;SDS011;271;51.114;13.780;2023-02-15T14:40:05;26.00;;;10.80;;
572;SDS011;271;51.114;13.780;2023-02-15T14:43:15;27.50;;;11.63;;
572;SDS011;271;51.114;13.780;2023-02-15T14:46:11;28.30;;;10.93;;
572;SDS011;271;51.114;13.780;2023-02-15T14:49:09;25.83;;;11.03;;
572;SDS011;271;51.114;13.780;2023-02-15T14:52:00;29.07;;;11.10;;
572;SDS011;271;51.114;13.780;2023-02-15T14:54:56;26.55;;;11.55;;
572;SDS011;271;51.114;13.780;2023-02-15T14:57:52;26.23;;;11.10;;
572;SDS011;271;51.114;13.780;2023-02-15T15:00:44;30.05;;;12.95;;
572;SDS011;271;51.114;13.780;2023-02-15T15:03:38;33.08;;;13.15;;
572;SDS011;271;51.114;13.780;2023-02-15T15:06:33;33.95;;;13.90;;
572;SDS011;271;51.114;13.780;2023-02-15T15:09:24;31.38;;;14.10;;
572;SDS011;271;51.114;13.780;2023-02-15T15:15:33;33.35;;;14.20;;
572;SDS011;271;51.114;13.780;2023-02-15T15:18:43;33.10;;;14.95;;
572;SDS011;271;51.114;13.780;2023-02-15T15:21:52;32.80;;;13.68;;
572;SDS011;271;51.114;13.780;2023-02-15T15:24:51;34.25;;;14.95;;
572;SDS011;271;51.114;13.780;2023-02-15T15:27:50;32.10;;;13.63;;
572;SDS011;271;51.114;13.780;2023-02-15T15:34:12;31.33;;;14.15;;
572;SDS011;271;51.114;13.780;2023-02-15T15:37:28;33.55;;;14.23;;
572;SDS011;271;51.114;13.780;2023-02-15T15:44:17;36.75;;;16.92;;
572;SDS011;271;51.114;13.780;2023-02-15T15:47:24;33.47;;;15.85;;
572;SDS011;271;51.114;13.780;2023-02-15T15:50:34;32.90;;;14.45;;
572;SDS011;271;51.114;13.780;2023-02-15T15:53:26;32.72;;;15.20;;
572;SDS011;271;51.114;13.780;2023-02-15T15:56:17;35.90;;;16.10;;
572;SDS011;271;51.114;13.780;2023-02-15T15:59:11;35.08;;;14.77;;
572;SDS011;271;51.114;13.780;2023-02-15T16:02:05;32.88;;;14.38;;
572;SDS011;271;51.114;13.780;2023-02-15T16:04:54;37.40;;;16.13;;
572;SDS011;271;51.114;13.780;2023-02-15T16:07:53;37.58;;;16.52;;
572;SDS011;271;51.114;13.780;2023-02-15T16:10:42;35.53;;;15.80;;
572;SDS011;271;51.114;13.780;2023-02-15T16:13:31;35.85;;;14.48;;
572;SDS011;271;51.114;13.780;2023-02-15T16:16:22;33.78;;;14.65;;
572;SDS011;271;51.114;13.780;2023-02-15T16:19:18;34.38;;;13.32;;
572;SDS011;271;51.114;13.780;2023-02-15T16:22:09;35.38;;;14.77;;
572;SDS011;271;51.114;13.780;2023-02-15T16:25:21;34.00;;;14.90;;
572;SDS011;271;51.114;13.780;2023-02-15T16:28:17;35.33;;;14.30;;
572;SDS011;271;51.114;13.780;2023-02-15T16:31:06;34.42;;;14.55;;
572;SDS011;271;51.114;13.780;2023-02-15T16:34:00;36.45;;;15.73;;
572;SDS011;271;51.114;13.780;2023-02-15T16:36:48;35.45;;;14.90;;
572;SDS011;271;51.114;13.780;2023-02-15T16:39:37;35.05;;;15.85;;
572;SDS011;271;51.114;13.780;2023-02-15T16:42:28;36.60;;;15.70;;
572;SDS011;271;51.114;13.780;2023-02-15T16:45:16;34.85;;;15.88;;
572;SDS011;271;51.114;13.780;2023-02-15T16:48:10;36.35;;;14.35;;
572;SDS011;271;51.114;13.780;2023-02-15T16:51:06;36.03;;;15.23;;
572;SDS011;271;51.114;13.780;2023-02-15T16:53:55;36.15;;;15.60;;
572;SDS011;271;51.114;13.780;2023-02-15T16:56:45;35.22;;;14.98;;
572;SDS011;271;51.114;13.780;2023-02-15T16:59:34;35.92;;;15.70;;
572;SDS011;271;51.114;13.780;2023-02-15T17:02:25;38.75;;;18.13;;
572;SDS011;271;51.114;13.780;2023-02-15T17:05:16;37.15;;;16.17;;
572;SDS011;271;51.114;13.780;2023-02-15T17:08:12;35.65;;;14.85;;
572;SDS011;271;51.114;13.780;2023-02-15T17:11:09;35.50;;;14.77;;
572;SDS011;271;51.114;13.780;2023-02-15T17:14:12;36.05;;;15.57;;
572;SDS011;271;51.114;13.780;2023-02-15T17:17:06;40.10;;;16.75;;
572;SDS011;271;51.114;13.780;2023-02-15T17:19:59;37.22;;;15.90;;
572;SDS011;271;51.114;13.780;2023-02-15T17:22:48;44.63;;;17.15;;
572;SDS011;271;51.114;13.780;2023-02-15T17:25:38;39.95;;;16.67;;
572;SDS011;271;51.114;13.780;2023-02-15T17:28:29;36.83;;;15.40;;
572;SDS011;271;51.114;13.780;2023-02-15T17:31:18;37.72;;;15.88;;
572;SDS011;271;51.114;13.780;2023-02-15T17:34:09;40.22;;;16.75;;
572;SDS011;271;51.114;13.780;2023-02-15T17:37:42;39.17;;;14.88;;
572;SDS011;271;51.114;13.780;2023-02-15T17:40:32;40.42;;;18.42;;
572;SDS011;271;51.114;13.780;2023-02-15T17:43:22;39.33;;;15.82;;
572;SDS011;271;51.114;13.780;2023-02-15T17:46:10;36.05;;;16.30;;
572;SDS011;271;51.114;13.780;2023-02-15T17:48:58;40.95;;;18.15;;
572;SDS011;271;51.114;13.780;2023-02-15T17:51:46;37.58;;;16.85;;
572;SDS011;271;51.114;13.780;2023-02-15T17:54:34;38.92;;;16.73;;
572;SDS011;271;51.114;13.780;2023-02-15T17:57:39;42.13;;;17.83;;
572;SDS011;271;51.114;13.780;2023-02-15T18:00:28;41.15;;;17.90;;